Hlavní strana
METAR-TAF:

METAR-TAF

Letiště :

Letiště Drážďany

Drážďany, Německo

zeměpisná šířka: 51-08N, zeměpisná délka: 013-45E, výška: 230 m

Aktuální stav počasí

Zpráva byla vytvořena před 30 minutami, v 09:50 UTC
vítr z různých směrů 3 kt
Teplota 22°C
Vlhkost vzduchu 69%
Tlak 1022 hPa
Viditelnost 10 km a více
Oblačno až skoro zataženo ve výšce 2600 ft

METAR: EDDC 180950Z VRB03KT 9999 BKN026 22/16 Q1022 NOSIG

Čas: 12:20 (10:20 UTC)

Předpověď počasí

Zpráva byla vytvořena před 5 hodinami a 20 minutami, v 05:00 UTC
Předpověď platná od 18 v 06 UTC do 19 v 06 UTC
Severoseverozápadní vítr 4 kt
Viditelnost 10 km a více
Polojasno ve výšce 3000 ft
Pravděpodobnost 30% :
Dočasný
od 18 v 12 UTC do 18 v 18 UTC
Severní vítr 15 kt s nárazy do 25 kt
Oblačno až skoro zataženo ve výšce 2000 ft, Cumulonimbus.
bouřka, déšť

TAF: EDDC 180500Z 1806/1906 34004KT 9999 SCT030 PROB30 TEMPO 1812/1818 36015G25KT TSRA BKN020CB

Stav a předpovědi počasí z více než 4 000 letišť (zprávy METAR a TAF).

Červené a žluté tečky na mapě představují dostupné meteorologické stanice.

Když kurzor umístíte na tečku, zobrazí se název stanice.

Pak kliknutím zobrazíte stav a předpověď počasí.

Chcete-li změnit mapu, kliknutím na zelené tlačítko se znaménkem +mapu přiblížíte, kliknutím na zelené tlačítko se znaménkem – mapu oddálíte a kliknutím na zelené šipky přejdete na sousední mapy.


METAR-TAF: